aviador You're here:

OIMN Decoded Metar

BOJNORD in IRAN
Report Time2017-09-25 16:00:00
UTC Time2017-09-25 16:53:22
Flight Rules vfr VFR
Wind290° at 04 kt
W.Decomp.*RWY 25: 3.2 kt HW 2.4 kt RCW
W.Rank290° ranks 3
Current wind is below 290° avg. (8.8)
Visibility9999 m
Phenomena:N/A
Clouds:Few 040 Hf
Scattered 080 Hf
Expected CloudBase > 5,600 ft AGL from Temp-Dew spread
CeilingNone
Temp21°C (ISA +13)
Dew Point07°C (40% RH)
AAT18.8°C
QNH1022 hPa
Density Alt4,869 ft
Elevation3,524 ft
Report Wrong Elevation
Raw Report
METAR OIMN 251600Z 29004KT 9999 FEW040 SCT080 21/07 Q1022=

Extra information for OIMN:More info

Metar Taf Metar & Taf Last 4 Metars F.Rules Stats Wind Profile Meteogram Temp Stats Airport Information Weather charts Add Link Nearby VenuesMetar ALERT Operation Metar Decoded Social comments